sensor_id;sensor_type;location;lat;lon;timestamp;P1;durP1;ratioP1;P2;durP2;ratioP2
17631;SDS011;8934;51.194;17.150;2024-01-16T00:00:00;1.65;;;0.70;;
17631;SDS011;8934;51.194;17.150;2024-01-16T00:02:49;4.45;;;1.35;;
17631;SDS011;8934;51.194;17.150;2024-01-16T00:05:36;6.90;;;1.35;;
17631;SDS011;8934;51.194;17.150;2024-01-16T00:08:24;1.95;;;1.58;;
17631;SDS011;8934;51.194;17.150;2024-01-16T00:11:12;2.50;;;1.10;;
17631;SDS011;8934;51.194;17.150;2024-01-16T00:13:59;6.47;;;1.42;;
17631;SDS011;8934;51.194;17.150;2024-01-16T00:16:48;2.50;;;0.88;;
17631;SDS011;8934;51.194;17.150;2024-01-16T00:19:36;1.95;;;1.08;;
17631;SDS011;8934;51.194;17.150;2024-01-16T00:22:23;1.73;;;1.05;;
17631;SDS011;8934;51.194;17.150;2024-01-16T00:25:11;2.00;;;0.95;;
17631;SDS011;8934;51.194;17.150;2024-01-16T00:27:59;2.25;;;0.88;;
17631;SDS011;8934;51.194;17.150;2024-01-16T00:30:49;3.22;;;1.20;;
17631;SDS011;8934;51.194;17.150;2024-01-16T00:33:37;4.85;;;1.30;;
17631;SDS011;8934;51.194;17.150;2024-01-16T00:36:26;0.90;;;0.60;;
17631;SDS011;8934;51.194;17.150;2024-01-16T00:39:14;2.55;;;0.73;;
17631;SDS011;8934;51.194;17.150;2024-01-16T00:42:01;8.23;;;0.98;;
17631;SDS011;8934;51.194;17.150;2024-01-16T00:44:49;2.95;;;1.15;;
17631;SDS011;8934;51.194;17.150;2024-01-16T00:47:36;1.70;;;1.15;;
17631;SDS011;8934;51.194;17.150;2024-01-16T00:50:25;3.30;;;1.67;;
17631;SDS011;8934;51.194;17.150;2024-01-16T00:53:13;2.72;;;1.35;;
17631;SDS011;8934;51.194;17.150;2024-01-16T00:56:00;2.80;;;1.13;;
17631;SDS011;8934;51.194;17.150;2024-01-16T00:58:48;1.67;;;1.33;;
17631;SDS011;8934;51.194;17.150;2024-01-16T01:01:37;3.30;;;1.02;;
17631;SDS011;8934;51.194;17.150;2024-01-16T01:04:24;1.85;;;1.27;;
17631;SDS011;8934;51.194;17.150;2024-01-16T01:07:14;4.80;;;1.42;;
17631;SDS011;8934;51.194;17.150;2024-01-16T01:10:02;3.60;;;1.75;;
17631;SDS011;8934;51.194;17.150;2024-01-16T01:12:50;2.42;;;1.35;;
17631;SDS011;8934;51.194;17.150;2024-01-16T01:15:38;1.38;;;1.10;;
17631;SDS011;8934;51.194;17.150;2024-01-16T01:18:26;6.20;;;1.40;;
17631;SDS011;8934;51.194;17.150;2024-01-16T01:21:14;4.18;;;1.65;;
17631;SDS011;8934;51.194;17.150;2024-01-16T01:24:03;6.05;;;1.83;;
17631;SDS011;8934;51.194;17.150;2024-01-16T01:26:51;2.22;;;1.40;;
17631;SDS011;8934;51.194;17.150;2024-01-16T01:29:38;3.28;;;1.58;;
17631;SDS011;8934;51.194;17.150;2024-01-16T01:32:26;1.63;;;0.85;;
17631;SDS011;8934;51.194;17.150;2024-01-16T01:35:14;3.00;;;1.50;;
17631;SDS011;8934;51.194;17.150;2024-01-16T01:38:05;3.78;;;1.70;;
17631;SDS011;8934;51.194;17.150;2024-01-16T01:40:55;5.70;;;1.15;;
17631;SDS011;8934;51.194;17.150;2024-01-16T01:43:43;1.50;;;1.23;;
17631;SDS011;8934;51.194;17.150;2024-01-16T01:46:31;2.63;;;0.93;;
17631;SDS011;8934;51.194;17.150;2024-01-16T01:49:20;4.32;;;0.70;;
17631;SDS011;8934;51.194;17.150;2024-01-16T01:52:09;1.30;;;0.70;;
17631;SDS011;8934;51.194;17.150;2024-01-16T01:54:57;2.00;;;1.05;;
17631;SDS011;8934;51.194;17.150;2024-01-16T01:57:47;2.35;;;1.00;;
17631;SDS011;8934;51.194;17.150;2024-01-16T02:00:35;2.65;;;1.40;;
17631;SDS011;8934;51.194;17.150;2024-01-16T02:03:23;3.40;;;1.27;;
17631;SDS011;8934;51.194;17.150;2024-01-16T02:06:14;1.55;;;1.05;;
17631;SDS011;8934;51.194;17.150;2024-01-16T02:09:02;3.22;;;1.13;;
17631;SDS011;8934;51.194;17.150;2024-01-16T02:11:52;1.30;;;0.70;;
17631;SDS011;8934;51.194;17.150;2024-01-16T02:14:42;1.30;;;0.70;;
17631;SDS011;8934;51.194;17.150;2024-01-16T02:17:29;7.82;;;1.17;;
17631;SDS011;8934;51.194;17.150;2024-01-16T02:20:17;4.53;;;1.20;;
17631;SDS011;8934;51.194;17.150;2024-01-16T02:23:05;3.20;;;1.50;;
17631;SDS011;8934;51.194;17.150;2024-01-16T02:25:55;1.52;;;1.10;;
17631;SDS011;8934;51.194;17.150;2024-01-16T02:28:43;5.53;;;1.27;;
17631;SDS011;8934;51.194;17.150;2024-01-16T02:31:31;2.00;;;1.10;;
17631;SDS011;8934;51.194;17.150;2024-01-16T02:34:18;5.20;;;2.30;;
17631;SDS011;8934;51.194;17.150;2024-01-16T02:37:06;3.35;;;1.85;;
17631;SDS011;8934;51.194;17.150;2024-01-16T02:39:54;3.40;;;1.15;;
17631;SDS011;8934;51.194;17.150;2024-01-16T02:42:42;2.17;;;1.10;;
17631;SDS011;8934;51.194;17.150;2024-01-16T02:45:30;2.65;;;1.10;;
17631;SDS011;8934;51.194;17.150;2024-01-16T02:48:18;3.75;;;1.35;;
17631;SDS011;8934;51.194;17.150;2024-01-16T02:51:06;2.70;;;1.30;;
17631;SDS011;8934;51.194;17.150;2024-01-16T02:53:53;1.77;;;1.10;;
17631;SDS011;8934;51.194;17.150;2024-01-16T02:56:40;3.55;;;1.52;;
17631;SDS011;8934;51.194;17.150;2024-01-16T02:59:30;4.88;;;1.63;;
17631;SDS011;8934;51.194;17.150;2024-01-16T03:02:17;2.70;;;1.15;;
17631;SDS011;8934;51.194;17.150;2024-01-16T03:05:05;4.55;;;1.60;;
17631;SDS011;8934;51.194;17.150;2024-01-16T03:07:53;2.72;;;0.77;;
17631;SDS011;8934;51.194;17.150;2024-01-16T03:10:41;2.78;;;1.38;;
17631;SDS011;8934;51.194;17.150;2024-01-16T03:13:28;3.25;;;1.55;;
17631;SDS011;8934;51.194;17.150;2024-01-16T03:16:17;6.88;;;2.15;;
17631;SDS011;8934;51.194;17.150;2024-01-16T03:19:05;6.07;;;2.50;;
17631;SDS011;8934;51.194;17.150;2024-01-16T03:21:54;4.55;;;1.77;;
17631;SDS011;8934;51.194;17.150;2024-01-16T03:24:41;4.97;;;2.65;;
17631;SDS011;8934;51.194;17.150;2024-01-16T03:27:29;4.28;;;2.03;;
17631;SDS011;8934;51.194;17.150;2024-01-16T03:30:16;3.80;;;1.67;;
17631;SDS011;8934;51.194;17.150;2024-01-16T03:33:06;5.85;;;1.67;;
17631;SDS011;8934;51.194;17.150;2024-01-16T03:35:54;3.40;;;1.40;;
17631;SDS011;8934;51.194;17.150;2024-01-16T03:38:42;5.20;;;1.42;;
17631;SDS011;8934;51.194;17.150;2024-01-16T03:41:30;1.80;;;0.73;;
17631;SDS011;8934;51.194;17.150;2024-01-16T03:44:17;4.80;;;1.80;;
17631;SDS011;8934;51.194;17.150;2024-01-16T03:47:05;5.97;;;1.48;;
17631;SDS011;8934;51.194;17.150;2024-01-16T03:49:54;2.50;;;1.27;;
17631;SDS011;8934;51.194;17.150;2024-01-16T03:52:42;2.50;;;1.02;;
17631;SDS011;8934;51.194;17.150;2024-01-16T03:55:30;1.95;;;1.48;;
17631;SDS011;8934;51.194;17.150;2024-01-16T03:58:17;4.43;;;1.80;;
17631;SDS011;8934;51.194;17.150;2024-01-16T04:01:05;3.80;;;1.23;;
17631;SDS011;8934;51.194;17.150;2024-01-16T04:03:52;1.80;;;1.10;;
17631;SDS011;8934;51.194;17.150;2024-01-16T04:06:41;3.40;;;1.42;;
17631;SDS011;8934;51.194;17.150;2024-01-16T04:09:29;3.58;;;1.45;;
17631;SDS011;8934;51.194;17.150;2024-01-16T04:12:16;4.30;;;1.48;;
17631;SDS011;8934;51.194;17.150;2024-01-16T04:15:04;3.00;;;1.55;;
17631;SDS011;8934;51.194;17.150;2024-01-16T04:17:52;2.22;;;1.75;;
17631;SDS011;8934;51.194;17.150;2024-01-16T04:20:40;3.63;;;1.10;;
17631;SDS011;8934;51.194;17.150;2024-01-16T04:23:29;2.67;;;1.33;;
17631;SDS011;8934;51.194;17.150;2024-01-16T04:26:16;1.75;;;1.30;;
17631;SDS011;8934;51.194;17.150;2024-01-16T04:29:05;3.30;;;1.73;;
17631;SDS011;8934;51.194;17.150;2024-01-16T04:31:52;3.55;;;1.10;;
17631;SDS011;8934;51.194;17.150;2024-01-16T04:34:40;2.28;;;1.48;;
17631;SDS011;8934;51.194;17.150;2024-01-16T04:37:27;3.53;;;1.27;;
17631;SDS011;8934;51.194;17.150;2024-01-16T04:40:16;3.70;;;1.33;;
17631;SDS011;8934;51.194;17.150;2024-01-16T04:43:04;2.00;;;1.35;;
17631;SDS011;8934;51.194;17.150;2024-01-16T04:45:52;2.95;;;1.38;;
17631;SDS011;8934;51.194;17.150;2024-01-16T04:48:39;2.58;;;1.35;;
17631;SDS011;8934;51.194;17.150;2024-01-16T04:51:27;2.22;;;0.98;;
17631;SDS011;8934;51.194;17.150;2024-01-16T04:54:14;1.90;;;1.05;;
17631;SDS011;8934;51.194;17.150;2024-01-16T04:57:05;4.80;;;1.50;;
17631;SDS011;8934;51.194;17.150;2024-01-16T04:59:53;2.45;;;0.85;;
17631;SDS011;8934;51.194;17.150;2024-01-16T05:02:41;2.67;;;1.17;;
17631;SDS011;8934;51.194;17.150;2024-01-16T05:05:29;4.85;;;1.55;;
17631;SDS011;8934;51.194;17.150;2024-01-16T05:08:16;3.30;;;1.67;;
17631;SDS011;8934;51.194;17.150;2024-01-16T05:11:04;5.28;;;1.40;;
17631;SDS011;8934;51.194;17.150;2024-01-16T05:13:53;2.53;;;1.40;;
17631;SDS011;8934;51.194;17.150;2024-01-16T05:16:44;3.60;;;0.90;;
17631;SDS011;8934;51.194;17.150;2024-01-16T05:19:31;4.35;;;1.38;;
17631;SDS011;8934;51.194;17.150;2024-01-16T05:22:19;2.60;;;1.27;;
17631;SDS011;8934;51.194;17.150;2024-01-16T05:25:07;2.58;;;1.42;;
17631;SDS011;8934;51.194;17.150;2024-01-16T05:27:54;4.18;;;1.58;;
17631;SDS011;8934;51.194;17.150;2024-01-16T05:30:44;1.70;;;1.42;;
17631;SDS011;8934;51.194;17.150;2024-01-16T05:33:31;3.20;;;1.58;;
17631;SDS011;8934;51.194;17.150;2024-01-16T05:36:19;6.55;;;1.70;;
17631;SDS011;8934;51.194;17.150;2024-01-16T05:39:07;3.30;;;1.33;;
17631;SDS011;8934;51.194;17.150;2024-01-16T05:41:54;4.78;;;1.20;;
17631;SDS011;8934;51.194;17.150;2024-01-16T05:44:42;2.65;;;1.52;;
17631;SDS011;8934;51.194;17.150;2024-01-16T05:47:31;2.17;;;1.08;;
17631;SDS011;8934;51.194;17.150;2024-01-16T05:50:19;1.83;;;0.95;;
17631;SDS011;8934;51.194;17.150;2024-01-16T05:53:06;1.77;;;1.10;;
17631;SDS011;8934;51.194;17.150;2024-01-16T05:55:54;1.25;;;0.80;;
17631;SDS011;8934;51.194;17.150;2024-01-16T05:58:42;2.25;;;0.95;;
17631;SDS011;8934;51.194;17.150;2024-01-16T06:01:30;1.27;;;0.93;;
17631;SDS011;8934;51.194;17.150;2024-01-16T06:04:19;1.83;;;1.00;;
17631;SDS011;8934;51.194;17.150;2024-01-16T06:07:06;4.72;;;1.00;;
17631;SDS011;8934;51.194;17.150;2024-01-16T06:09:54;3.30;;;1.40;;
17631;SDS011;8934;51.194;17.150;2024-01-16T06:12:42;4.32;;;1.05;;
17631;SDS011;8934;51.194;17.150;2024-01-16T06:15:30;1.55;;;0.70;;
17631;SDS011;8934;51.194;17.150;2024-01-16T06:18:17;1.08;;;0.90;;
17631;SDS011;8934;51.194;17.150;2024-01-16T06:21:06;3.53;;;1.42;;
17631;SDS011;8934;51.194;17.150;2024-01-16T06:23:54;1.20;;;1.02;;
17631;SDS011;8934;51.194;17.150;2024-01-16T06:26:42;2.72;;;1.63;;
17631;SDS011;8934;51.194;17.150;2024-01-16T06:29:30;2.20;;;1.30;;
17631;SDS011;8934;51.194;17.150;2024-01-16T06:32:20;1.70;;;1.00;;
17631;SDS011;8934;51.194;17.150;2024-01-16T06:35:08;2.33;;;1.05;;
17631;SDS011;8934;51.194;17.150;2024-01-16T06:37:57;2.47;;;1.10;;
17631;SDS011;8934;51.194;17.150;2024-01-16T06:40:45;7.55;;;1.60;;
17631;SDS011;8934;51.194;17.150;2024-01-16T06:43:33;6.15;;;1.63;;
17631;SDS011;8934;51.194;17.150;2024-01-16T06:46:21;1.63;;;1.20;;
17631;SDS011;8934;51.194;17.150;2024-01-16T06:49:09;4.00;;;2.13;;
17631;SDS011;8934;51.194;17.150;2024-01-16T06:51:57;2.80;;;1.20;;
17631;SDS011;8934;51.194;17.150;2024-01-16T06:54:46;2.42;;;1.25;;
17631;SDS011;8934;51.194;17.150;2024-01-16T06:57:33;1.92;;;0.80;;
17631;SDS011;8934;51.194;17.150;2024-01-16T07:00:21;2.38;;;1.30;;
17631;SDS011;8934;51.194;17.150;2024-01-16T07:03:11;2.25;;;1.00;;
17631;SDS011;8934;51.194;17.150;2024-01-16T07:05:59;3.40;;;1.77;;
17631;SDS011;8934;51.194;17.150;2024-01-16T07:08:47;1.92;;;1.48;;
17631;SDS011;8934;51.194;17.150;2024-01-16T07:11:36;2.42;;;0.57;;
17631;SDS011;8934;51.194;17.150;2024-01-16T07:14:25;2.83;;;0.80;;
17631;SDS011;8934;51.194;17.150;2024-01-16T07:17:12;3.13;;;0.80;;
17631;SDS011;8934;51.194;17.150;2024-01-16T07:20:00;1.48;;;0.55;;
17631;SDS011;8934;51.194;17.150;2024-01-16T07:22:48;1.25;;;1.05;;
17631;SDS011;8934;51.194;17.150;2024-01-16T07:25:36;0.80;;;0.63;;
17631;SDS011;8934;51.194;17.150;2024-01-16T07:28:26;0.70;;;0.45;;
17631;SDS011;8934;51.194;17.150;2024-01-16T07:31:14;2.55;;;1.23;;
17631;SDS011;8934;51.194;17.150;2024-01-16T07:34:03;1.77;;;0.68;;
17631;SDS011;8934;51.194;17.150;2024-01-16T07:36:51;1.08;;;0.90;;
17631;SDS011;8934;51.194;17.150;2024-01-16T07:39:40;5.38;;;2.47;;
17631;SDS011;8934;51.194;17.150;2024-01-16T07:42:27;4.88;;;2.20;;
17631;SDS011;8934;51.194;17.150;2024-01-16T07:45:21;8.15;;;3.53;;
17631;SDS011;8934;51.194;17.150;2024-01-16T07:48:09;10.93;;;3.38;;
17631;SDS011;8934;51.194;17.150;2024-01-16T07:50:59;7.47;;;3.47;;
17631;SDS011;8934;51.194;17.150;2024-01-16T07:53:47;7.85;;;3.60;;
17631;SDS011;8934;51.194;17.150;2024-01-16T07:56:37;7.07;;;2.80;;
17631;SDS011;8934;51.194;17.150;2024-01-16T07:59:25;8.32;;;3.47;;
17631;SDS011;8934;51.194;17.150;2024-01-16T08:02:14;9.55;;;3.70;;
17631;SDS011;8934;51.194;17.150;2024-01-16T08:05:03;7.32;;;3.08;;
17631;SDS011;8934;51.194;17.150;2024-01-16T08:07:52;5.18;;;2.85;;
17631;SDS011;8934;51.194;17.150;2024-01-16T08:10:40;2.63;;;2.10;;
17631;SDS011;8934;51.194;17.150;2024-01-16T08:13:29;6.40;;;2.30;;
17631;SDS011;8934;51.194;17.150;2024-01-16T08:16:18;8.82;;;2.70;;
17631;SDS011;8934;51.194;17.150;2024-01-16T08:19:11;9.23;;;3.45;;
17631;SDS011;8934;51.194;17.150;2024-01-16T08:22:01;7.47;;;3.08;;
17631;SDS011;8934;51.194;17.150;2024-01-16T08:24:54;15.48;;;6.35;;
17631;SDS011;8934;51.194;17.150;2024-01-16T08:27:42;12.23;;;5.35;;
17631;SDS011;8934;51.194;17.150;2024-01-16T08:30:30;9.77;;;3.03;;
17631;SDS011;8934;51.194;17.150;2024-01-16T08:33:21;6.82;;;3.25;;
17631;SDS011;8934;51.194;17.150;2024-01-16T08:36:23;9.63;;;4.25;;
17631;SDS011;8934;51.194;17.150;2024-01-16T08:39:10;11.00;;;5.07;;
17631;SDS011;8934;51.194;17.150;2024-01-16T08:41:59;8.82;;;4.32;;
17631;SDS011;8934;51.194;17.150;2024-01-16T08:44:50;5.63;;;3.10;;
17631;SDS011;8934;51.194;17.150;2024-01-16T08:47:40;5.47;;;3.08;;
17631;SDS011;8934;51.194;17.150;2024-01-16T08:50:29;3.65;;;1.98;;
17631;SDS011;8934;51.194;17.150;2024-01-16T08:53:20;2.83;;;1.92;;
17631;SDS011;8934;51.194;17.150;2024-01-16T08:56:09;6.72;;;2.88;;
17631;SDS011;8934;51.194;17.150;2024-01-16T08:58:58;6.95;;;3.05;;
17631;SDS011;8934;51.194;17.150;2024-01-16T09:01:46;5.35;;;2.45;;
17631;SDS011;8934;51.194;17.150;2024-01-16T09:04:34;2.72;;;2.03;;
17631;SDS011;8934;51.194;17.150;2024-01-16T09:07:23;6.25;;;2.13;;
17631;SDS011;8934;51.194;17.150;2024-01-16T09:10:12;8.57;;;2.10;;
17631;SDS011;8934;51.194;17.150;2024-01-16T09:13:01;5.28;;;2.63;;
17631;SDS011;8934;51.194;17.150;2024-01-16T09:15:49;5.47;;;2.25;;
17631;SDS011;8934;51.194;17.150;2024-01-16T09:18:36;3.70;;;1.75;;
17631;SDS011;8934;51.194;17.150;2024-01-16T09:21:24;3.10;;;1.92;;
17631;SDS011;8934;51.194;17.150;2024-01-16T09:24:12;5.63;;;2.45;;
17631;SDS011;8934;51.194;17.150;2024-01-16T09:27:01;3.38;;;2.25;;
17631;SDS011;8934;51.194;17.150;2024-01-16T09:29:52;4.10;;;1.55;;
17631;SDS011;8934;51.194;17.150;2024-01-16T09:32:40;10.35;;;2.35;;
17631;SDS011;8934;51.194;17.150;2024-01-16T09:35:28;3.17;;;1.30;;
17631;SDS011;8934;51.194;17.150;2024-01-16T09:38:16;3.70;;;2.30;;
17631;SDS011;8934;51.194;17.150;2024-01-16T09:41:08;3.90;;;1.98;;
17631;SDS011;8934;51.194;17.150;2024-01-16T09:43:57;12.32;;;3.53;;
17631;SDS011;8934;51.194;17.150;2024-01-16T09:46:46;4.30;;;2.75;;
17631;SDS011;8934;51.194;17.150;2024-01-16T09:49:38;6.10;;;2.28;;
17631;SDS011;8934;51.194;17.150;2024-01-16T09:52:26;5.55;;;2.83;;
17631;SDS011;8934;51.194;17.150;2024-01-16T09:55:14;5.97;;;3.13;;
17631;SDS011;8934;51.194;17.150;2024-01-16T09:58:02;7.28;;;2.45;;
17631;SDS011;8934;51.194;17.150;2024-01-16T10:00:53;3.92;;;2.08;;
17631;SDS011;8934;51.194;17.150;2024-01-16T10:03:43;7.57;;;2.70;;
17631;SDS011;8934;51.194;17.150;2024-01-16T10:06:32;4.43;;;2.67;;
17631;SDS011;8934;51.194;17.150;2024-01-16T10:09:22;3.72;;;2.50;;
17631;SDS011;8934;51.194;17.150;2024-01-16T10:12:10;3.72;;;2.03;;
17631;SDS011;8934;51.194;17.150;2024-01-16T10:14:58;5.32;;;2.63;;
17631;SDS011;8934;51.194;17.150;2024-01-16T10:17:48;6.40;;;3.20;;
17631;SDS011;8934;51.194;17.150;2024-01-16T10:20:36;5.03;;;2.78;;
17631;SDS011;8934;51.194;17.150;2024-01-16T10:23:24;6.78;;;2.50;;
17631;SDS011;8934;51.194;17.150;2024-01-16T10:26:12;4.22;;;2.03;;
17631;SDS011;8934;51.194;17.150;2024-01-16T10:29:03;7.13;;;3.05;;
17631;SDS011;8934;51.194;17.150;2024-01-16T10:31:51;7.25;;;2.88;;
17631;SDS011;8934;51.194;17.150;2024-01-16T10:34:41;7.57;;;2.90;;
17631;SDS011;8934;51.194;17.150;2024-01-16T10:37:28;3.08;;;1.65;;
17631;SDS011;8934;51.194;17.150;2024-01-16T10:40:16;3.70;;;2.38;;
17631;SDS011;8934;51.194;17.150;2024-01-16T10:43:09;3.70;;;2.10;;
17631;SDS011;8934;51.194;17.150;2024-01-16T10:45:58;5.97;;;1.88;;
17631;SDS011;8934;51.194;17.150;2024-01-16T10:48:58;6.85;;;2.00;;
17631;SDS011;8934;51.194;17.150;2024-01-16T10:51:48;2.55;;;1.70;;
17631;SDS011;8934;51.194;17.150;2024-01-16T10:54:40;5.13;;;2.25;;
17631;SDS011;8934;51.194;17.150;2024-01-16T10:57:29;8.20;;;2.03;;
17631;SDS011;8934;51.194;17.150;2024-01-16T11:00:19;8.57;;;1.90;;
17631;SDS011;8934;51.194;17.150;2024-01-16T11:03:09;5.63;;;2.42;;
17631;SDS011;8934;51.194;17.150;2024-01-16T11:06:04;2.80;;;1.95;;
17631;SDS011;8934;51.194;17.150;2024-01-16T11:08:55;4.88;;;2.05;;
17631;SDS011;8934;51.194;17.150;2024-01-16T11:11:45;4.07;;;2.47;;
17631;SDS011;8934;51.194;17.150;2024-01-16T11:14:35;5.47;;;2.40;;
17631;SDS011;8934;51.194;17.150;2024-01-16T11:17:24;6.82;;;2.10;;
17631;SDS011;8934;51.194;17.150;2024-01-16T11:20:12;13.18;;;2.38;;
17631;SDS011;8934;51.194;17.150;2024-01-16T11:23:20;4.68;;;1.83;;
17631;SDS011;8934;51.194;17.150;2024-01-16T11:26:26;6.75;;;2.97;;
17631;SDS011;8934;51.194;17.150;2024-01-16T11:29:33;6.70;;;2.65;;
17631;SDS011;8934;51.194;17.150;2024-01-16T11:32:32;2.40;;;2.20;;
17631;SDS011;8934;51.194;17.150;2024-01-16T11:35:31;8.18;;;2.10;;
17631;SDS011;8934;51.194;17.150;2024-01-16T11:38:20;3.33;;;2.22;;
17631;SDS011;8934;51.194;17.150;2024-01-16T11:41:07;3.03;;;2.25;;
17631;SDS011;8934;51.194;17.150;2024-01-16T11:44:03;4.00;;;2.67;;
17631;SDS011;8934;51.194;17.150;2024-01-16T11:47:00;5.63;;;2.00;;
17631;SDS011;8934;51.194;17.150;2024-01-16T11:49:49;3.55;;;1.90;;
17631;SDS011;8934;51.194;17.150;2024-01-16T11:52:41;8.02;;;3.08;;
17631;SDS011;8934;51.194;17.150;2024-01-16T11:55:33;3.88;;;2.33;;
17631;SDS011;8934;51.194;17.150;2024-01-16T11:58:32;4.18;;;1.77;;
17631;SDS011;8934;51.194;17.150;2024-01-16T12:01:30;2.35;;;1.70;;
17631;SDS011;8934;51.194;17.150;2024-01-16T12:04:18;3.75;;;2.10;;
17631;SDS011;8934;51.194;17.150;2024-01-16T12:07:07;3.38;;;1.70;;
17631;SDS011;8934;51.194;17.150;2024-01-16T12:09:58;2.75;;;1.30;;
17631;SDS011;8934;51.194;17.150;2024-01-16T12:12:47;5.65;;;2.88;;
17631;SDS011;8934;51.194;17.150;2024-01-16T12:15:36;7.20;;;2.60;;
17631;SDS011;8934;51.194;17.150;2024-01-16T12:18:25;2.63;;;1.83;;
17631;SDS011;8934;51.194;17.150;2024-01-16T12:21:27;5.70;;;2.03;;
17631;SDS011;8934;51.194;17.150;2024-01-16T12:24:15;1.90;;;1.75;;
17631;SDS011;8934;51.194;17.150;2024-01-16T12:27:04;5.68;;;2.72;;
17631;SDS011;8934;51.194;17.150;2024-01-16T12:30:04;4.20;;;2.17;;
17631;SDS011;8934;51.194;17.150;2024-01-16T12:32:53;5.80;;;2.58;;
17631;SDS011;8934;51.194;17.150;2024-01-16T12:36:02;5.97;;;1.42;;
17631;SDS011;8934;51.194;17.150;2024-01-16T12:38:54;2.75;;;1.52;;
17631;SDS011;8934;51.194;17.150;2024-01-16T12:41:43;3.33;;;1.65;;
17631;SDS011;8934;51.194;17.150;2024-01-16T12:44:32;3.83;;;1.73;;
17631;SDS011;8934;51.194;17.150;2024-01-16T12:47:20;6.07;;;2.35;;
17631;SDS011;8934;51.194;17.150;2024-01-16T12:50:08;2.30;;;1.13;;
17631;SDS011;8934;51.194;17.150;2024-01-16T12:53:04;2.97;;;1.70;;
17631;SDS011;8934;51.194;17.150;2024-01-16T12:55:57;3.38;;;1.35;;
17631;SDS011;8934;51.194;17.150;2024-01-16T12:58:49;2.28;;;1.33;;
17631;SDS011;8934;51.194;17.150;2024-01-16T13:01:39;1.55;;;1.25;;
17631;SDS011;8934;51.194;17.150;2024-01-16T13:04:28;2.83;;;1.73;;
17631;SDS011;8934;51.194;17.150;2024-01-16T13:07:16;3.53;;;1.65;;
17631;SDS011;8934;51.194;17.150;2024-01-16T13:10:07;5.90;;;2.50;;
17631;SDS011;8934;51.194;17.150;2024-01-16T13:13:13;3.33;;;2.20;;
17631;SDS011;8934;51.194;17.150;2024-01-16T13:16:02;6.38;;;2.10;;
17631;SDS011;8934;51.194;17.150;2024-01-16T13:18:59;3.38;;;1.67;;
17631;SDS011;8934;51.194;17.150;2024-01-16T13:21:54;4.35;;;1.95;;
17631;SDS011;8934;51.194;17.150;2024-01-16T13:24:42;4.30;;;1.95;;
17631;SDS011;8934;51.194;17.150;2024-01-16T13:27:44;4.45;;;1.83;;
17631;SDS011;8934;51.194;17.150;2024-01-16T13:30:32;3.30;;;1.42;;
17631;SDS011;8934;51.194;17.150;2024-01-16T13:33:32;3.88;;;1.80;;
17631;SDS011;8934;51.194;17.150;2024-01-16T13:36:20;4.53;;;2.10;;
17631;SDS011;8934;51.194;17.150;2024-01-16T13:39:28;9.80;;;2.40;;
17631;SDS011;8934;51.194;17.150;2024-01-16T13:42:18;5.95;;;2.00;;
17631;SDS011;8934;51.194;17.150;2024-01-16T13:45:08;8.30;;;1.98;;
17631;SDS011;8934;51.194;17.150;2024-01-16T13:47:59;4.25;;;2.45;;
17631;SDS011;8934;51.194;17.150;2024-01-16T13:50:48;7.47;;;2.38;;
17631;SDS011;8934;51.194;17.150;2024-01-16T13:53:35;6.75;;;2.25;;
17631;SDS011;8934;51.194;17.150;2024-01-16T13:56:23;11.23;;;2.35;;
17631;SDS011;8934;51.194;17.150;2024-01-16T13:59:31;4.07;;;2.42;;
17631;SDS011;8934;51.194;17.150;2024-01-16T14:02:20;7.03;;;3.20;;
17631;SDS011;8934;51.194;17.150;2024-01-16T14:05:07;4.90;;;2.83;;
17631;SDS011;8934;51.194;17.150;2024-01-16T14:07:56;5.43;;;2.05;;
17631;SDS011;8934;51.194;17.150;2024-01-16T14:10:44;4.32;;;3.00;;
17631;SDS011;8934;51.194;17.150;2024-01-16T14:13:31;5.43;;;2.72;;
17631;SDS011;8934;51.194;17.150;2024-01-16T14:16:19;3.60;;;3.17;;
17631;SDS011;8934;51.194;17.150;2024-01-16T14:22:16;7.22;;;2.95;;
17631;SDS011;8934;51.194;17.150;2024-01-16T14:25:05;7.18;;;3.65;;
17631;SDS011;8934;51.194;17.150;2024-01-16T14:27:57;3.58;;;2.15;;
17631;SDS011;8934;51.194;17.150;2024-01-16T14:30:49;6.18;;;2.95;;
17631;SDS011;8934;51.194;17.150;2024-01-16T14:33:37;5.05;;;2.78;;
17631;SDS011;8934;51.194;17.150;2024-01-16T14:36:26;9.35;;;4.28;;
17631;SDS011;8934;51.194;17.150;2024-01-16T14:39:14;7.40;;;3.17;;
17631;SDS011;8934;51.194;17.150;2024-01-16T14:42:08;8.00;;;4.03;;
17631;SDS011;8934;51.194;17.150;2024-01-16T14:44:58;11.90;;;4.70;;
17631;SDS011;8934;51.194;17.150;2024-01-16T14:47:46;14.63;;;5.22;;
17631;SDS011;8934;51.194;17.150;2024-01-16T14:50:35;9.68;;;4.28;;
17631;SDS011;8934;51.194;17.150;2024-01-16T14:53:23;11.80;;;5.03;;
17631;SDS011;8934;51.194;17.150;2024-01-16T14:56:11;10.18;;;5.25;;
17631;SDS011;8934;51.194;17.150;2024-01-16T14:58:59;7.90;;;4.80;;
17631;SDS011;8934;51.194;17.150;2024-01-16T15:01:47;9.63;;;5.10;;
17631;SDS011;8934;51.194;17.150;2024-01-16T15:04:35;12.20;;;5.28;;
17631;SDS011;8934;51.194;17.150;2024-01-16T15:07:23;15.52;;;5.53;;
17631;SDS011;8934;51.194;17.150;2024-01-16T15:10:13;40.00;;;14.88;;
17631;SDS011;8934;51.194;17.150;2024-01-16T15:13:02;20.70;;;8.85;;
17631;SDS011;8934;51.194;17.150;2024-01-16T15:15:50;14.30;;;5.57;;
17631;SDS011;8934;51.194;17.150;2024-01-16T15:18:39;6.95;;;3.78;;
17631;SDS011;8934;51.194;17.150;2024-01-16T15:21:28;8.57;;;4.10;;
17631;SDS011;8934;51.194;17.150;2024-01-16T15:24:15;6.38;;;2.97;;
17631;SDS011;8934;51.194;17.150;2024-01-16T15:27:09;10.05;;;6.75;;
17631;SDS011;8934;51.194;17.150;2024-01-16T15:29:58;17.63;;;8.40;;
17631;SDS011;8934;51.194;17.150;2024-01-16T15:32:49;7.63;;;4.53;;
17631;SDS011;8934;51.194;17.150;2024-01-16T15:35:38;8.32;;;3.90;;
17631;SDS011;8934;51.194;17.150;2024-01-16T15:38:26;11.25;;;4.70;;
17631;SDS011;8934;51.194;17.150;2024-01-16T15:41:14;5.18;;;3.08;;
17631;SDS011;8934;51.194;17.150;2024-01-16T15:44:03;8.13;;;4.10;;
17631;SDS011;8934;51.194;17.150;2024-01-16T15:46:59;5.05;;;3.58;;
17631;SDS011;8934;51.194;17.150;2024-01-16T15:49:48;9.52;;;3.97;;
17631;SDS011;8934;51.194;17.150;2024-01-16T15:52:36;8.60;;;3.70;;
17631;SDS011;8934;51.194;17.150;2024-01-16T15:55:23;8.75;;;4.10;;
17631;SDS011;8934;51.194;17.150;2024-01-16T15:58:11;10.52;;;5.82;;
17631;SDS011;8934;51.194;17.150;2024-01-16T16:01:00;10.20;;;4.95;;
17631;SDS011;8934;51.194;17.150;2024-01-16T16:03:48;7.60;;;4.63;;
17631;SDS011;8934;51.194;17.150;2024-01-16T16:06:36;9.88;;;4.15;;
17631;SDS011;8934;51.194;17.150;2024-01-16T16:09:24;7.15;;;3.47;;
17631;SDS011;8934;51.194;17.150;2024-01-16T16:12:12;9.90;;;4.03;;
17631;SDS011;8934;51.194;17.150;2024-01-16T16:15:03;9.57;;;4.85;;
17631;SDS011;8934;51.194;17.150;2024-01-16T16:17:53;8.18;;;3.22;;
17631;SDS011;8934;51.194;17.150;2024-01-16T16:20:43;22.60;;;6.78;;
17631;SDS011;8934;51.194;17.150;2024-01-16T16:23:30;21.90;;;7.57;;
17631;SDS011;8934;51.194;17.150;2024-01-16T16:26:18;15.40;;;6.20;;
17631;SDS011;8934;51.194;17.150;2024-01-16T16:29:16;18.52;;;8.27;;
17631;SDS011;8934;51.194;17.150;2024-01-16T16:32:04;21.67;;;7.78;;
17631;SDS011;8934;51.194;17.150;2024-01-16T16:34:53;22.63;;;7.30;;
17631;SDS011;8934;51.194;17.150;2024-01-16T16:37:41;21.80;;;7.35;;
17631;SDS011;8934;51.194;17.150;2024-01-16T16:40:30;16.42;;;7.40;;
17631;SDS011;8934;51.194;17.150;2024-01-16T16:43:18;20.25;;;8.73;;
17631;SDS011;8934;51.194;17.150;2024-01-16T16:46:05;26.65;;;7.53;;
17631;SDS011;8934;51.194;17.150;2024-01-16T16:48:53;14.52;;;7.60;;
17631;SDS011;8934;51.194;17.150;2024-01-16T16:51:43;18.15;;;8.65;;
17631;SDS011;8934;51.194;17.150;2024-01-16T16:54:33;22.63;;;8.65;;
17631;SDS011;8934;51.194;17.150;2024-01-16T16:57:20;25.95;;;10.98;;
17631;SDS011;8934;51.194;17.150;2024-01-16T17:00:08;19.30;;;8.88;;